createdAt,value
2022-09-02T00:02:06.099Z,96803.41
2022-09-02T00:04:35.206Z,96800.19
2022-09-02T00:07:02.804Z,96800.41
2022-09-02T00:09:30.385Z,96797.63
2022-09-02T00:11:58.153Z,96807.22
2022-09-02T00:14:35.661Z,96796.91
2022-09-02T00:17:04.351Z,96803.09
2022-09-02T00:19:32.687Z,96799.47
2022-09-02T00:22:03.331Z,96803.09
2022-09-02T00:24:31.673Z,96792.56
2022-09-02T00:26:59.257Z,96792.81
2022-09-02T00:29:27.486Z,96782.09
2022-09-02T00:31:55.388Z,96783.72
2022-09-02T00:34:23.253Z,96782.09
2022-09-02T00:36:50.941Z,96786.56
2022-09-02T00:39:19.914Z,96775.72
2022-09-02T00:41:47.561Z,96779.06
2022-09-02T00:44:18.265Z,96776.72
2022-09-02T00:46:46.552Z,96774.06
2022-09-02T00:49:18.636Z,96771.44
2022-09-02T00:51:52.365Z,96768.00
2022-09-02T00:54:23.823Z,96760.56
2022-09-02T00:56:53.862Z,96770.50
2022-09-02T00:59:28.575Z,96764.19
2022-09-02T01:01:56.411Z,96761.16
2022-09-02T01:04:24.156Z,96760.09
2022-09-02T01:06:52.274Z,96760.91
2022-09-02T01:09:21.280Z,96761.72
2022-09-02T01:11:55.207Z,96764.56
2022-09-02T01:14:24.144Z,96767.41
2022-09-02T01:16:59.944Z,96759.31
2022-09-02T01:19:30.797Z,96757.69
2022-09-02T01:21:59.926Z,96764.78
2022-09-02T01:24:31.061Z,96760.16
2022-09-02T01:27:00.369Z,96756.19
2022-09-02T01:29:29.382Z,96763.09
2022-09-02T01:31:57.418Z,96765.16
2022-09-02T01:34:25.194Z,96763.56
2022-09-02T01:36:53.175Z,96767.78
2022-09-02T01:39:22.042Z,96765.97
2022-09-02T01:41:49.603Z,96750.19
2022-09-02T01:44:17.833Z,96756.25
2022-09-02T01:46:46.386Z,96756.66
2022-09-02T01:49:14.174Z,96765.16
2022-09-02T01:51:42.038Z,96758.72
2022-09-02T01:54:09.856Z,96759.19
2022-09-02T01:56:39.111Z,96757.88
2022-09-02T01:59:07.830Z,96755.63
2022-09-02T02:01:35.733Z,96757.88
2022-09-02T02:04:04.175Z,96750.56
2022-09-02T02:06:32.033Z,96756.47
2022-09-02T02:08:59.628Z,96748.38
2022-09-02T02:11:27.467Z,96757.72
2022-09-02T02:13:56.389Z,96755.16
2022-09-02T02:16:24.085Z,96752.16
2022-09-02T02:18:51.687Z,96750.13
2022-09-02T02:21:19.235Z,96750.28
2022-09-02T02:23:48.536Z,96742.97
2022-09-02T02:26:16.357Z,96752.47
2022-09-02T02:28:44.120Z,96751.06
2022-09-02T02:31:13.321Z,96753.34
2022-09-02T02:33:40.917Z,96748.50
2022-09-02T02:36:09.897Z,96748.50
2022-09-02T02:38:39.151Z,96744.25
2022-09-02T02:41:07.394Z,96746.13
2022-09-02T02:43:35.866Z,96751.81
2022-09-02T02:46:04.315Z,96753.44
2022-09-02T02:48:33.829Z,96757.69
2022-09-02T02:51:01.442Z,96758.72
2022-09-02T02:53:31.226Z,96749.03
2022-09-02T02:55:59.374Z,96754.69
2022-09-02T02:58:27.171Z,96751.47
2022-09-02T03:00:54.832Z,96749.44
2022-09-02T03:03:22.628Z,96749.66
2022-09-02T03:05:52.553Z,96747.03
2022-09-02T03:08:21.960Z,96738.16
2022-09-02T03:10:54.447Z,96734.94
2022-09-02T03:13:24.871Z,96728.47
2022-09-02T03:15:52.889Z,96725.69
2022-09-02T03:18:20.780Z,96729.75
2022-09-02T03:20:48.319Z,96719.88
2022-09-02T03:23:18.882Z,96728.56
2022-09-02T03:25:47.295Z,96726.13
2022-09-02T03:28:15.407Z,96722.94
2022-09-02T03:30:43.483Z,96725.75
2022-09-02T03:33:11.126Z,96725.34
2022-09-02T03:35:41.468Z,96723.16
2022-09-02T03:38:09.924Z,96723.94
2022-09-02T03:40:40.125Z,96719.66
2022-09-02T03:43:07.838Z,96723.31
2022-09-02T03:45:35.673Z,96715.25
2022-09-02T03:48:04.553Z,96717.66
2022-09-02T03:50:36.441Z,96722.09
2022-09-02T03:53:04.584Z,96715.84
2022-09-02T03:55:32.232Z,96718.47
2022-09-02T03:58:03.434Z,96728.59
2022-09-02T04:00:34.146Z,96718.47
2022-09-02T04:03:03.693Z,96718.88
2022-09-02T04:05:32.045Z,96719.88
2022-09-02T04:08:00.596Z,96718.47
2022-09-02T04:10:28.267Z,96720.47
2022-09-02T04:12:55.941Z,96722.47
2022-09-02T04:15:25.211Z,96720.47
2022-09-02T04:17:52.777Z,96723.31
2022-09-02T04:20:20.486Z,96719.66
2022-09-02T04:22:48.061Z,96718.47
2022-09-02T04:25:15.648Z,96712.63
2022-09-02T04:27:43.279Z,96720.31
2022-09-02T04:30:11.740Z,96710.78
2022-09-02T04:32:41.127Z,96717.66
2022-09-02T04:35:09.007Z,96714.91
2022-09-02T04:37:36.594Z,96717.13
2022-09-02T04:40:05.351Z,96718.75
2022-09-02T04:42:32.988Z,96707.44
2022-09-02T04:45:00.782Z,96703.78
2022-09-02T04:47:28.933Z,96708.63
2022-09-02T04:49:58.450Z,96712.53
2022-09-02T04:52:26.485Z,96716.81
2022-09-02T04:54:54.075Z,96720.69
2022-09-02T04:57:21.646Z,96721.69
2022-09-02T04:59:49.821Z,96715.41
2022-09-02T05:02:18.315Z,96717.81
2022-09-02T05:04:46.207Z,96717.63
2022-09-02T05:07:16.062Z,96717.78
2022-09-02T05:09:44.168Z,96721.63
2022-09-02T05:12:11.860Z,96719.00
2022-09-02T05:14:39.628Z,96729.66
2022-09-02T05:17:07.988Z,96712.50
2022-09-02T05:19:35.778Z,96718.38
2022-09-02T05:22:05.015Z,96715.59
2022-09-02T05:24:34.162Z,96719.81
2022-09-02T05:27:01.788Z,96725.06
2022-09-02T05:29:29.593Z,96726.28
2022-09-02T05:31:57.506Z,96724.84
2022-09-02T05:34:25.261Z,96723.41
2022-09-02T05:36:53.854Z,96717.13
2022-09-02T05:39:21.681Z,96717.13
2022-09-02T05:41:50.623Z,96721.97
2022-09-02T05:44:18.247Z,96719.56
2022-09-02T05:46:48.933Z,96716.53
2022-09-02T05:49:18.299Z,96728.69
2022-09-02T05:51:48.428Z,96728.69
2022-09-02T05:54:18.773Z,96726.22
2022-09-02T05:56:52.667Z,96727.41
2022-09-02T05:59:21.245Z,96728.59
2022-09-02T06:01:49.468Z,96726.56
2022-09-02T06:04:17.298Z,96724.53
2022-09-02T06:06:44.998Z,96726.13
2022-09-02T06:09:14.521Z,96721.69
2022-09-02T06:11:44.670Z,96724.09
2022-09-02T06:14:15.055Z,96716.44
2022-09-02T06:16:43.574Z,96721.69
2022-09-02T06:19:11.272Z,96716.81
2022-09-02T06:21:39.982Z,96720.44
2022-09-02T06:24:08.728Z,96711.09
2022-09-02T06:26:37.581Z,96713.28
2022-09-02T06:29:06.624Z,96714.91
2022-09-02T06:31:36.194Z,96716.31
2022-09-02T06:34:04.799Z,96716.66
2022-09-02T06:36:33.107Z,96712.41
2022-09-02T06:39:01.891Z,96718.03
2022-09-02T06:41:33.468Z,96721.88
2022-09-02T06:44:03.535Z,96726.25
2022-09-02T06:46:38.490Z,96722.34
2022-09-02T06:49:07.827Z,96722.66
2022-09-02T06:51:38.374Z,96715.28
2022-09-02T06:54:07.211Z,96715.22
2022-09-02T06:56:35.657Z,96704.88
2022-09-02T06:59:04.196Z,96708.25
2022-09-02T07:01:33.328Z,96708.38
2022-09-02T07:04:16.399Z,96705.50
2022-09-02T07:06:46.221Z,96710.84
2022-09-02T07:09:16.482Z,96708.31
2022-09-02T07:11:47.762Z,96712.44
2022-09-02T07:14:16.029Z,96717.56
2022-09-02T07:16:46.548Z,96713.97
2022-09-02T07:19:20.494Z,96718.66
2022-09-02T07:21:49.437Z,96722.72
2022-09-02T07:24:18.467Z,96720.75
2022-09-02T07:26:46.665Z,96715.94
2022-09-02T07:29:14.701Z,96710.47
2022-09-02T07:31:44.428Z,96720.34
2022-09-02T07:34:14.990Z,96706.50
2022-09-02T07:36:45.795Z,96716.94
2022-09-02T07:39:14.895Z,96708.34
2022-09-02T07:41:44.992Z,96705.03
2022-09-02T07:44:13.597Z,96713.28
2022-09-02T07:46:42.200Z,96705.66
2022-09-02T07:49:15.595Z,96701.72
2022-09-02T07:51:49.279Z,96703.84
2022-09-02T07:54:19.159Z,96708.72
2022-09-02T07:56:47.127Z,96708.38
2022-09-02T07:59:14.713Z,96705.44
2022-09-02T08:04:18.701Z,96701.31
2022-09-02T08:06:47.696Z,96707.41
2022-09-02T08:09:15.325Z,96703.19
2022-09-02T08:11:46.521Z,96706.28
2022-09-02T08:14:18.149Z,96701.25
2022-09-02T08:16:46.801Z,96694.03
2022-09-02T08:19:16.209Z,96701.72
2022-09-02T08:21:43.812Z,96708.47
2022-09-02T08:24:13.151Z,96696.00
2022-09-02T08:26:40.838Z,96710.69
2022-09-02T08:29:09.949Z,96700.03
2022-09-02T08:31:38.190Z,96705.53
2022-09-02T08:34:06.535Z,96698.53
2022-09-02T08:36:34.259Z,96708.09
2022-09-02T08:39:03.560Z,96690.38
2022-09-02T08:41:40.102Z,96689.75
2022-09-02T08:44:08.602Z,96698.19
2022-09-02T08:46:36.724Z,96688.94
2022-09-02T08:49:10.079Z,96691.44
2022-09-02T08:51:42.810Z,96689.72
2022-09-02T08:54:21.232Z,96685.72
2022-09-02T08:56:51.826Z,96694.00
2022-09-02T08:59:22.547Z,96691.50
2022-09-02T09:01:57.772Z,96685.22
2022-09-02T09:04:44.493Z,96689.50
2022-09-02T09:07:25.607Z,96685.16
2022-09-02T09:10:03.957Z,96685.09
2022-09-02T09:12:49.464Z,96686.53
2022-09-02T09:15:23.379Z,96685.56
2022-09-02T09:17:58.163Z,96687.31
2022-09-02T09:20:28.235Z,96691.16
2022-09-02T09:22:57.932Z,96697.75
2022-09-02T09:25:30.087Z,96682.25
2022-09-02T09:27:59.647Z,96679.69
2022-09-02T09:30:27.639Z,96676.03
2022-09-02T09:32:57.447Z,96672.88
2022-09-02T09:35:26.548Z,96675.34
2022-09-02T09:37:55.230Z,96665.97
2022-09-02T09:40:33.519Z,96669.78
2022-09-02T09:43:15.956Z,96676.56
2022-09-02T09:45:45.684Z,96662.28
2022-09-02T09:48:24.003Z,96668.34
2022-09-02T09:51:17.081Z,96650.75
2022-09-02T09:53:45.289Z,96650.69
2022-09-02T09:56:38.457Z,96653.91
2022-09-02T09:59:31.630Z,96652.91
2022-09-02T10:02:01.690Z,96651.72
2022-09-02T10:04:49.764Z,96654.03
2022-09-02T10:07:38.581Z,96656.69
2022-09-02T10:10:18.386Z,96655.28
2022-09-02T10:12:49.205Z,96651.28
2022-09-02T10:15:30.150Z,96644.13
2022-09-02T10:18:07.828Z,96638.63
2022-09-02T10:21:04.844Z,96645.09
2022-09-02T10:23:47.207Z,96627.69
2022-09-02T10:26:27.383Z,96640.06
2022-09-02T10:29:09.822Z,96633.25
2022-09-02T10:31:46.472Z,96634.88
2022-09-02T10:34:22.276Z,96633.91
2022-09-02T10:37:11.143Z,96623.28
2022-09-02T10:39:59.677Z,96634.63
2022-09-02T10:42:36.227Z,96630.34
2022-09-02T10:45:14.639Z,96617.91
2022-09-02T10:47:47.615Z,96630.72
2022-09-02T10:50:23.411Z,96621.34
2022-09-02T10:53:03.747Z,96627.22
2022-09-02T10:55:41.859Z,96612.63
2022-09-02T10:58:18.181Z,96612.41
2022-09-02T11:00:52.481Z,96604.34
2022-09-02T11:03:29.306Z,96601.59
2022-09-02T11:06:06.993Z,96599.41
2022-09-02T11:08:41.530Z,96597.00
2022-09-02T11:11:16.190Z,96589.50
2022-09-02T11:13:58.871Z,96599.16
2022-09-02T11:16:34.412Z,96596.78
2022-09-02T11:19:14.110Z,96589.88
2022-09-02T11:21:52.449Z,96580.88
2022-09-02T11:24:28.474Z,96584.66
2022-09-02T11:27:20.214Z,96579.31
2022-09-02T11:30:03.661Z,96574.53
2022-09-02T11:32:41.001Z,96579.38
2022-09-02T11:35:16.534Z,96579.41
2022-09-02T11:37:51.338Z,96577.84
2022-09-02T11:40:36.795Z,96578.94
2022-09-02T11:43:24.414Z,96579.00
2022-09-02T11:46:15.306Z,96570.50
2022-09-02T11:49:06.900Z,96562.28
2022-09-02T11:52:02.005Z,96574.25
2022-09-02T11:54:36.714Z,96568.44
2022-09-02T11:57:07.254Z,96566.59
2022-09-02T12:00:21.269Z,96570.09
2022-09-02T12:02:53.400Z,96569.06
2022-09-02T12:05:42.685Z,96570.66
2022-09-02T12:08:15.587Z,96555.72
2022-09-02T12:11:02.509Z,96556.50
2022-09-02T12:13:37.318Z,96562.13
2022-09-02T12:16:39.017Z,96563.19
2022-09-02T12:19:30.507Z,96561.84
2022-09-02T12:22:29.462Z,96557.84
2022-09-02T12:25:00.264Z,96559.72
2022-09-02T12:27:31.556Z,96552.78
2022-09-02T12:30:00.653Z,96556.53
2022-09-02T12:33:12.753Z,96559.22
2022-09-02T12:35:57.787Z,96552.03
2022-09-02T12:38:31.966Z,96552.03
2022-09-02T12:41:30.471Z,96547.78
2022-09-02T12:44:23.918Z,96547.25
2022-09-02T12:47:02.753Z,96544.06
2022-09-02T12:49:50.609Z,96531.53
2022-09-02T12:52:42.798Z,96536.59
2022-09-02T12:55:17.887Z,96529.13
2022-09-02T12:57:51.894Z,96527.25
2022-09-02T13:00:31.705Z,96527.50
2022-09-02T13:03:13.382Z,96513.41
2022-09-02T13:05:55.347Z,96520.06
2022-09-02T13:08:56.595Z,96512.88
2022-09-02T13:12:02.012Z,96512.88
2022-09-02T13:15:08.797Z,96512.09
2022-09-02T13:17:56.251Z,96506.75
2022-09-02T13:21:02.590Z,96509.94
2022-09-02T13:24:16.020Z,96505.72
2022-09-02T13:27:11.581Z,96505.97
2022-09-02T13:30:20.880Z,96498.25
2022-09-02T13:33:02.015Z,96491.59
2022-09-02T13:35:31.713Z,96491.84
2022-09-02T13:38:03.176Z,96492.66
2022-09-02T13:40:34.277Z,96495.03
2022-09-02T13:43:06.631Z,96491.84
2022-09-02T13:45:36.731Z,96494.00
2022-09-02T13:48:10.821Z,96489.75
2022-09-02T13:50:44.155Z,96492.41
2022-09-02T13:53:45.549Z,96483.31
2022-09-02T13:56:12.076Z,96490.25
2022-09-02T13:58:47.285Z,96491.34
2022-09-02T14:01:22.460Z,96482.56
2022-09-02T14:03:54.745Z,96478.56
2022-09-02T14:06:27.045Z,96469.53
2022-09-02T14:09:00.041Z,96474.06
2022-09-02T14:11:30.266Z,96472.75
2022-09-02T14:13:59.169Z,96464.22
2022-09-02T14:16:33.630Z,96464.78
2022-09-02T14:19:11.739Z,96463.72
2022-09-02T14:21:47.803Z,96453.84
2022-09-02T14:24:18.195Z,96453.06
2022-09-02T14:26:49.518Z,96446.13
2022-09-02T14:29:20.652Z,96440.00
2022-09-02T14:32:03.882Z,96433.09
2022-09-02T14:34:39.738Z,96426.94
2022-09-02T14:37:23.306Z,96420.59
2022-09-02T14:40:12.256Z,96416.88
2022-09-02T14:42:48.731Z,96410.19
2022-09-02T14:45:27.597Z,96412.06
2022-09-02T14:47:57.835Z,96413.13
2022-09-02T14:50:30.518Z,96407.28
2022-09-02T14:53:04.930Z,96411.03
2022-09-02T14:55:48.856Z,96411.84
2022-09-02T14:58:19.229Z,96414.22
2022-09-02T15:00:55.766Z,96402.81
2022-09-02T15:03:24.349Z,96403.84
2022-09-02T15:05:54.203Z,96385.50
2022-09-02T15:08:22.777Z,96386.00
2022-09-02T15:10:51.027Z,96385.75
2022-09-02T15:13:27.109Z,96397.19
2022-09-02T15:16:03.486Z,96391.34
2022-09-02T15:18:32.069Z,96395.63
2022-09-02T15:21:10.983Z,96389.25
2022-09-02T15:23:41.101Z,96390.59
2022-09-02T15:26:09.690Z,96387.38
2022-09-02T15:28:38.658Z,96389.78
2022-09-02T15:31:06.649Z,96386.84
2022-09-02T15:33:34.852Z,96399.38
2022-09-02T15:36:21.411Z,96391.38
2022-09-02T15:38:49.385Z,96393.25
2022-09-02T15:41:19.800Z,96399.91
2022-09-02T15:43:49.011Z,96395.06
2022-09-02T15:46:24.748Z,96398.00
2022-09-02T15:48:53.317Z,96392.94
2022-09-02T15:51:24.714Z,96392.69
2022-09-02T15:53:56.820Z,96394.25
2022-09-02T15:56:27.001Z,96400.41
2022-09-02T15:58:59.127Z,96391.59
2022-09-02T16:01:28.449Z,96388.94
2022-09-02T16:04:04.123Z,96390.56
2022-09-02T16:06:41.786Z,96390.56
2022-09-02T16:09:23.196Z,96387.91
2022-09-02T16:12:00.938Z,96382.03
2022-09-02T16:14:38.519Z,96387.09
2022-09-02T16:17:12.291Z,96379.91
2022-09-02T16:19:47.806Z,96388.13
2022-09-02T16:22:29.523Z,96391.88
2022-09-02T16:25:14.822Z,96392.38
2022-09-02T16:27:58.456Z,96389.19
2022-09-02T16:30:31.035Z,96390.78
2022-09-02T16:33:04.690Z,96400.88
2022-09-02T16:35:41.127Z,96395.28
2022-09-02T16:38:19.991Z,96401.13
2022-09-02T16:43:56.645Z,96400.56
2022-09-02T16:46:25.590Z,96403.22
2022-09-02T16:48:56.760Z,96396.56
2022-09-02T16:54:21.181Z,96396.53
2022-09-02T16:56:52.743Z,96390.66
2022-09-02T16:59:20.274Z,96388.25
2022-09-02T17:01:47.854Z,96387.97
2022-09-02T17:04:15.446Z,96400.72
2022-09-02T17:06:43.032Z,96395.16
2022-09-02T17:09:10.864Z,96391.66
2022-09-02T17:11:41.484Z,96395.09
2022-09-02T17:14:11.112Z,96390.56
2022-09-02T17:16:40.454Z,96378.84
2022-09-02T17:19:08.695Z,96382.03
2022-09-02T17:21:38.002Z,96379.88
2022-09-02T17:24:07.602Z,96385.97
2022-09-02T17:26:37.199Z,96391.81
2022-09-02T17:29:17.301Z,96403.72
2022-09-02T17:31:53.802Z,96399.19
2022-09-02T17:34:21.648Z,96398.94
2022-09-02T17:36:49.211Z,96400.25
2022-09-02T17:39:18.489Z,96398.34
2022-09-02T17:41:54.401Z,96395.41
2022-09-02T17:44:25.182Z,96400.66
2022-09-02T17:46:53.332Z,96408.38
2022-09-02T17:49:21.540Z,96399.31
2022-09-02T17:51:49.624Z,96397.63
2022-09-02T17:54:17.212Z,96394.41
2022-09-02T17:57:03.614Z,96395.97
2022-09-02T17:59:43.283Z,96388.00
2022-09-02T18:02:47.919Z,96389.78
2022-09-02T18:05:29.001Z,96387.13
2022-09-02T18:08:01.562Z,96378.81
2022-09-02T18:10:34.428Z,96377.72
2022-09-02T18:13:05.777Z,96384.34
2022-09-02T18:15:41.862Z,96389.88
2022-09-02T18:18:11.864Z,96388.53
2022-09-02T18:20:43.469Z,96393.53
2022-09-02T18:23:32.819Z,96402.00
2022-09-02T18:26:11.668Z,96404.13
2022-09-02T18:28:50.111Z,96405.66
2022-09-02T18:31:35.922Z,96407.75
2022-09-02T18:34:17.992Z,96408.75
2022-09-02T18:36:55.593Z,96402.34
2022-09-02T18:39:43.377Z,96413.97
2022-09-02T18:42:23.910Z,96414.44
2022-09-02T18:45:03.581Z,96416.25
2022-09-02T18:47:38.007Z,96412.19
2022-09-02T18:50:07.400Z,96415.81
2022-09-02T18:52:37.310Z,96420.81
2022-09-02T18:55:10.862Z,96418.09
2022-09-02T18:57:45.123Z,96418.38
2022-09-02T19:00:16.041Z,96421.50
2022-09-02T19:02:50.075Z,96425.69
2022-09-02T19:05:20.555Z,96427.78
2022-09-02T19:08:12.242Z,96428.59
2022-09-02T19:10:40.629Z,96422.47
2022-09-02T19:13:08.382Z,96422.75
2022-09-02T19:15:36.065Z,96425.63
2022-09-02T19:18:06.270Z,96429.88
2022-09-02T19:20:35.368Z,96428.59
2022-09-02T19:23:06.889Z,96430.97
2022-09-02T19:25:36.491Z,96433.06
2022-09-02T19:28:06.152Z,96432.78
2022-09-02T19:30:37.305Z,96417.88
2022-09-02T19:33:09.164Z,96424.47
2022-09-02T19:35:38.228Z,96426.78
2022-09-02T19:38:06.014Z,96422.78
2022-09-02T19:40:36.399Z,96424.38
2022-09-02T19:43:07.493Z,96423.81
2022-09-02T19:45:46.717Z,96430.19
2022-09-02T19:48:16.565Z,96428.66
2022-09-02T19:50:46.013Z,96421.72
2022-09-02T19:53:19.155Z,96436.81
2022-09-02T19:55:46.919Z,96426.75
2022-09-02T19:58:14.627Z,96421.91
2022-09-02T20:00:43.350Z,96425.81
2022-09-02T20:03:11.380Z,96415.69
2022-09-02T20:05:41.050Z,96414.41
2022-09-02T20:08:09.724Z,96416.81
2022-09-02T20:10:37.535Z,96409.13
2022-09-02T20:13:05.594Z,96411.50
2022-09-02T20:15:37.552Z,96414.94
2022-09-02T20:18:11.529Z,96414.41
2022-09-02T20:20:44.315Z,96411.50
2022-09-02T20:23:17.035Z,96401.19
2022-09-02T20:25:57.407Z,96401.19
2022-09-02T20:28:26.520Z,96410.94
2022-09-02T20:31:05.011Z,96407.50
2022-09-02T20:33:41.060Z,96401.91
2022-09-02T20:36:18.678Z,96400.81
2022-09-02T20:39:18.171Z,96393.56
2022-09-02T20:41:59.215Z,96402.53
2022-09-02T20:44:43.246Z,96401.50
2022-09-02T20:47:37.183Z,96402.22
2022-09-02T20:50:22.342Z,96411.22
2022-09-02T20:53:06.914Z,96406.41
2022-09-02T20:55:41.365Z,96416.38
2022-09-02T20:58:18.008Z,96410.44
2022-09-02T21:00:54.571Z,96410.28
2022-09-02T21:03:25.850Z,96413.44
2022-09-02T21:05:58.265Z,96408.59
2022-09-02T21:08:31.004Z,96407.59
2022-09-02T21:11:01.233Z,96411.97
2022-09-02T21:13:41.557Z,96412.47
2022-09-02T21:16:19.497Z,96407.66
2022-09-02T21:18:53.313Z,96408.72
2022-09-02T21:21:27.569Z,96405.50
2022-09-02T21:24:02.453Z,96414.50
2022-09-02T21:26:39.996Z,96398.28
2022-09-02T21:29:16.227Z,96397.16
2022-09-02T21:31:49.627Z,96406.16
2022-09-02T21:34:24.402Z,96402.94
2022-09-02T21:36:55.405Z,96392.84
2022-09-02T21:39:28.229Z,96385.97
2022-09-02T21:42:07.444Z,96382.19
2022-09-02T21:44:45.720Z,96380.56
2022-09-02T21:47:22.995Z,96377.94
2022-09-02T21:50:04.349Z,96382.41
2022-09-02T21:52:45.632Z,96378.41
2022-09-02T21:55:26.604Z,96375.22
2022-09-02T21:58:09.843Z,96384.19
2022-09-02T22:00:39.123Z,96375.16
2022-09-02T22:03:16.335Z,96376.16
2022-09-02T22:05:53.279Z,96379.06
2022-09-02T22:08:28.905Z,96371.03
2022-09-02T22:11:09.557Z,96372.53
2022-09-02T22:13:41.876Z,96374.06
2022-09-02T22:16:16.254Z,96380.16
2022-09-02T22:18:55.330Z,96376.59
2022-09-02T22:21:39.673Z,96374.69
2022-09-02T22:24:08.280Z,96386.97
2022-09-02T22:26:41.065Z,96385.06
2022-09-02T22:29:17.298Z,96388.19
2022-09-02T22:31:48.158Z,96387.84
2022-09-02T22:34:18.620Z,96383.28
2022-09-02T22:36:56.348Z,96390.88
2022-09-02T22:39:33.747Z,96388.69
2022-09-02T22:42:09.937Z,96389.63
2022-09-02T22:45:00.657Z,96395.41
2022-09-02T22:47:48.238Z,96398.75
2022-09-02T22:50:39.404Z,96391.53
2022-09-02T22:53:06.938Z,96388.56
2022-09-02T22:55:47.006Z,96378.47
2022-09-02T22:58:37.357Z,96388.47
2022-09-02T23:01:15.256Z,96385.81
2022-09-02T23:03:51.334Z,96376.28
2022-09-02T23:24:05.719Z,96378.16
2022-09-02T23:26:41.031Z,96381.25
2022-09-02T23:29:18.821Z,96373.34
2022-09-02T23:32:00.430Z,96384.47
2022-09-02T23:34:44.123Z,96381.38
2022-09-02T23:37:21.041Z,96386.19
2022-09-02T23:39:59.544Z,96385.38
2022-09-02T23:42:27.833Z,96384.59
2022-09-02T23:45:08.283Z,96382.75
2022-09-02T23:47:50.818Z,96377.69
2022-09-02T23:50:27.578Z,96374.47
2022-09-02T23:53:06.670Z,96368.06
2022-09-02T23:55:48.728Z,96364.28
2022-09-02T23:58:33.871Z,96365.75
